Time;durP1;ratioP1;P1;durP2;ratioP2;P2;SDS_P1;SDS_P2;PMS_P1;PMS_P2;Temp;Humidity;BMP_temperature;BMP_pressure;BME280_temperature;BME280_humidity;BME280_pressure;Samples;Min_cycle;Max_cycle;Signal;HPM_P1;HPM_P2
2022/04/07 00:02:06;;;;;;;4.13;1.20;;;17.10;60.60;;;;;;5017104;28;20503;-69
2022/04/07 00:04:32;;;;;;;5.25;1.50;;;17.10;60.50;;;;;;5013191;28;20026;-68
2022/04/07 00:06:57;;;;;;;6.93;1.58;;;17.00;60.40;;;;;;5011976;28;20034;-67
2022/04/07 00:09:23;;;;;;;3.25;1.02;;;17.00;60.40;;;;;;5013948;28;20262;-67
2022/04/07 00:11:49;;;;;;;6.28;1.20;;;17.00;60.50;;;;;;5014773;28;20032;-68
2022/04/07 00:14:14;;;;;;;5.32;1.30;;;17.00;60.40;;;;;;5020052;28;20100;-68
2022/04/07 00:16:40;;;;;;;4.43;1.25;;;17.00;60.50;;;;;;5016675;28;20056;-68
2022/04/07 00:19:06;;;;;;;4.55;1.23;;;17.00;60.50;;;;;;5019842;28;20029;-67
2022/04/07 00:21:46;;;;;;;6.72;1.33;;;17.00;60.50;;;;;;5012317;28;20037;-68
2022/04/07 00:24:12;;;;;;;3.47;1.05;;;17.00;60.50;;;;;;5016560;28;20092;-68
2022/04/07 00:26:37;;;;;;;4.68;1.20;;;17.00;60.50;;;;;;5017878;28;20026;-68
2022/04/07 00:29:03;;;;;;;6.05;1.50;;;17.00;60.50;;;;;;5016566;28;20034;-68
2022/04/07 00:31:38;;;;;;;4.85;1.30;;;17.00;60.50;;;;;;5018231;28;20456;-68
2022/04/07 00:34:07;;;;;;;5.30;1.33;;;17.00;60.60;;;;;;5013995;28;20061;-68
2022/04/07 00:36:33;;;;;;;5.53;1.40;;;17.00;60.50;;;;;;5016075;28;20506;-68
2022/04/07 00:38:58;;;;;;;5.80;1.65;;;16.90;60.50;;;;;;5016034;28;20050;-67
2022/04/07 00:41:24;;;;;;;4.38;1.20;;;17.00;60.60;;;;;;5020217;28;20029;-68
2022/04/07 00:43:51;;;;;;;4.90;1.23;;;17.00;60.60;;;;;;5015558;28;20067;-68
2022/04/07 00:46:16;;;;;;;5.63;1.50;;;17.00;60.60;;;;;;5018457;28;20069;-68
2022/04/07 00:48:42;;;;;;;5.55;1.33;;;16.90;60.60;;;;;;5016101;28;20560;-68
2022/04/07 00:51:08;;;;;;;5.47;1.50;;;16.90;60.60;;;;;;5013348;28;20103;-68
2022/04/07 00:53:33;;;;;;;3.90;1.00;;;16.90;60.60;;;;;;5019416;28;20054;-68
2022/04/07 00:56:01;;;;;;;6.35;1.35;;;16.90;60.60;;;;;;5015229;28;20505;-68
2022/04/07 00:58:28;;;;;;;5.22;1.50;;;16.90;60.70;;;;;;5022226;28;20044;-68
2022/04/07 01:00:54;;;;;;;5.22;1.25;;;16.90;60.60;;;;;;5011471;28;20030;-68
2022/04/07 01:03:19;;;;;;;5.72;1.20;;;16.90;60.70;;;;;;5018013;28;20501;-68
2022/04/07 01:05:45;;;;;;;4.38;1.20;;;16.90;60.60;;;;;;5017677;28;20034;-68
2022/04/07 01:08:10;;;;;;;3.28;0.95;;;16.90;60.70;;;;;;5023616;28;20512;-68
2022/04/07 01:10:37;;;;;;;4.85;1.00;;;16.90;60.60;;;;;;5015561;28;20489;-68
2022/04/07 01:13:03;;;;;;;3.45;1.05;;;16.90;60.60;;;;;;5013557;28;20048;-68
2022/04/07 01:15:29;;;;;;;5.90;1.20;;;16.80;60.70;;;;;;5016881;28;20076;-68
2022/04/07 01:17:55;;;;;;;3.88;1.17;;;16.90;60.70;;;;;;5021340;28;20957;-68
2022/04/07 01:20:21;;;;;;;5.90;1.20;;;16.90;60.80;;;;;;5018333;28;20099;-68
2022/04/07 01:22:47;;;;;;;4.90;0.98;;;16.90;60.70;;;;;;5017533;28;20486;-69
2022/04/07 01:25:13;;;;;;;5.15;1.23;;;16.90;60.80;;;;;;5023401;28;20058;-68
2022/04/07 01:27:39;;;;;;;4.03;1.00;;;16.90;60.90;;;;;;5010385;28;20045;-68
2022/04/07 01:30:05;;;;;;;5.25;1.17;;;16.80;60.80;;;;;;5017587;28;20501;-68
2022/04/07 01:32:41;;;;;;;3.03;0.85;;;16.80;60.70;;;;;;5015723;28;20449;-68
2022/04/07 01:35:07;;;;;;;3.63;1.25;;;16.80;60.80;;;;;;5016193;28;20095;-68
2022/04/07 01:37:33;;;;;;;4.65;1.13;;;16.80;60.70;;;;;;5009476;28;20068;-68
2022/04/07 01:39:59;;;;;;;6.40;1.27;;;16.80;60.80;;;;;;5010907;28;20045;-68
2022/04/07 01:42:25;;;;;;;4.18;1.20;;;16.80;60.80;;;;;;5012977;28;20025;-67
2022/04/07 01:44:52;;;;;;;4.80;1.20;;;16.80;60.80;;;;;;5014043;28;20046;-68
2022/04/07 01:47:20;;;;;;;3.55;1.20;;;16.80;60.80;;;;;;5013381;28;20053;-68
2022/04/07 01:49:46;;;;;;;5.15;1.35;;;16.80;60.90;;;;;;5014763;28;20013;-68
2022/04/07 01:52:12;;;;;;;3.45;1.05;;;16.80;60.90;;;;;;5021851;28;20040;-68
2022/04/07 01:54:38;;;;;;;3.40;1.00;;;16.80;60.90;;;;;;5017963;28;20091;-68
2022/04/07 01:57:04;;;;;;;3.10;0.95;;;16.80;61.00;;;;;;5020232;28;20030;-68
2022/04/07 01:59:30;;;;;;;4.20;1.20;;;16.80;61.00;;;;;;5013104;28;20050;-68
2022/04/07 02:01:55;;;;;;;3.28;1.15;;;16.80;60.90;;;;;;5010816;28;20528;-68
2022/04/07 02:04:21;;;;;;;5.88;1.05;;;16.80;60.90;;;;;;5014427;28;20026;-68
2022/04/07 02:06:47;;;;;;;4.28;1.27;;;16.80;61.00;;;;;;5010211;28;20116;-68
2022/04/07 02:09:12;;;;;;;4.47;1.08;;;16.80;61.00;;;;;;5019123;28;20036;-68
2022/04/07 02:11:38;;;;;;;3.38;1.00;;;16.80;61.00;;;;;;5016405;28;20030;-67
2022/04/07 02:14:04;;;;;;;2.95;0.90;;;16.70;60.90;;;;;;5017848;28;20120;-68
2022/04/07 02:16:32;;;;;;;2.50;0.90;;;16.70;61.00;;;;;;5013366;28;20119;-68
2022/04/07 02:18:58;;;;;;;4.82;1.25;;;16.70;61.00;;;;;;5014764;28;20057;-67
2022/04/07 02:21:23;;;;;;;3.08;0.90;;;16.70;61.00;;;;;;5010644;28;20033;-68
2022/04/07 02:23:49;;;;;;;3.45;0.90;;;16.70;61.00;;;;;;5018604;28;20025;-68
2022/04/07 02:26:16;;;;;;;6.50;1.08;;;16.70;61.10;;;;;;5018519;28;20469;-68
2022/04/07 02:28:42;;;;;;;4.15;1.00;;;16.70;61.10;;;;;;5017370;28;20162;-68
2022/04/07 02:31:07;;;;;;;4.60;1.00;;;16.70;61.10;;;;;;5012881;28;20068;-68
2022/04/07 02:33:35;;;;;;;1.95;0.68;;;16.70;61.10;;;;;;5009874;28;20333;-68
2022/04/07 02:36:02;;;;;;;4.53;0.98;;;16.70;61.20;;;;;;5014499;28;20045;-69
2022/04/07 02:38:28;;;;;;;2.95;0.80;;;16.70;61.20;;;;;;5019428;28;20032;-68
2022/04/07 02:40:53;;;;;;;3.88;1.25;;;16.70;61.20;;;;;;5016038;28;20546;-62
2022/04/07 02:43:19;;;;;;;3.25;0.80;;;16.70;61.20;;;;;;5009012;28;20518;-62
2022/04/07 02:45:45;;;;;;;3.15;0.88;;;16.70;61.20;;;;;;5014785;28;20037;-62
2022/04/07 02:48:10;;;;;;;2.88;0.80;;;16.70;61.30;;;;;;5014449;28;20033;-62
2022/04/07 02:50:36;;;;;;;4.10;1.08;;;16.70;61.30;;;;;;5023448;28;20033;-62
2022/04/07 02:53:02;;;;;;;2.53;0.90;;;16.70;61.20;;;;;;5013178;28;20509;-62
2022/04/07 02:55:27;;;;;;;2.85;0.90;;;16.70;61.30;;;;;;5012272;28;20233;-62
2022/04/07 02:57:56;;;;;;;3.22;0.93;;;16.70;61.30;;;;;;5010557;28;20105;-62
2022/04/07 03:00:22;;;;;;;2.35;0.80;;;16.70;61.30;;;;;;5021626;28;20459;-62
2022/04/07 03:02:48;;;;;;;4.13;1.08;;;16.60;61.30;;;;;;5015597;28;20102;-62
2022/04/07 03:05:13;;;;;;;1.98;0.88;;;16.70;61.40;;;;;;5015674;28;20124;-62
2022/04/07 03:07:39;;;;;;;3.33;0.90;;;16.70;61.40;;;;;;5014904;28;20550;-62
2022/04/07 03:10:05;;;;;;;2.03;0.80;;;16.70;61.40;;;;;;5013974;28;20506;-62
2022/04/07 03:12:30;;;;;;;2.28;0.80;;;16.60;61.40;;;;;;5018041;28;20117;-62
2022/04/07 03:14:56;;;;;;;2.70;0.80;;;16.60;61.40;;;;;;5027209;28;20034;-62
2022/04/07 03:17:22;;;;;;;2.53;0.77;;;16.70;61.40;;;;;;5025115;28;20232;-62
2022/04/07 03:19:47;;;;;;;3.92;0.90;;;16.70;61.50;;;;;;5021116;28;20117;-62
2022/04/07 03:22:15;;;;;;;3.97;0.90;;;16.70;61.50;;;;;;5018563;28;20837;-62
2022/04/07 03:24:41;;;;;;;2.88;0.90;;;16.60;61.50;;;;;;5021337;28;20037;-62
2022/04/07 03:27:07;;;;;;;3.28;0.88;;;16.70;61.60;;;;;;5012626;28;20388;-62
2022/04/07 03:29:34;;;;;;;2.85;0.80;;;16.70;61.60;;;;;;5018877;28;20049;-62
2022/04/07 03:31:59;;;;;;;2.33;0.90;;;16.60;61.50;;;;;;5021499;28;20044;-62
2022/04/07 03:34:25;;;;;;;3.30;0.90;;;16.60;61.60;;;;;;5016373;28;20380;-62
2022/04/07 03:36:51;;;;;;;2.65;0.77;;;16.60;61.60;;;;;;5015383;28;20026;-62
2022/04/07 03:39:16;;;;;;;2.28;0.70;;;16.60;61.60;;;;;;5022406;28;20033;-62
2022/04/07 03:41:42;;;;;;;1.30;0.60;;;16.60;61.70;;;;;;5024693;28;20057;-62
2022/04/07 03:44:09;;;;;;;5.75;1.13;;;16.70;61.70;;;;;;5014225;28;20038;-62
2022/04/07 03:46:39;;;;;;;1.65;0.60;;;16.60;61.70;;;;;;5019054;28;20041;-62
2022/04/07 03:49:05;;;;;;;1.95;0.60;;;16.60;61.70;;;;;;5018676;28;20033;-62
2022/04/07 03:51:30;;;;;;;1.80;0.77;;;16.60;61.80;;;;;;5014609;28;20030;-62
2022/04/07 03:53:56;;;;;;;3.03;0.50;;;16.60;61.80;;;;;;5018836;28;20088;-62
2022/04/07 03:56:22;;;;;;;2.33;0.93;;;16.60;61.90;;;;;;5020199;28;20401;-62
2022/04/07 03:58:47;;;;;;;2.17;0.85;;;16.60;61.90;;;;;;5012774;28;20486;-62
2022/04/07 04:01:13;;;;;;;2.70;0.80;;;16.60;61.70;;;;;;5015104;28;20032;-62
2022/04/07 04:03:39;;;;;;;2.15;0.80;;;16.60;61.90;;;;;;5026706;28;20045;-62
2022/04/07 04:06:05;;;;;;;3.75;0.90;;;16.60;61.90;;;;;;5019393;28;20037;-62
2022/04/07 04:08:31;;;;;;;2.88;0.95;;;16.60;62.00;;;;;;5016267;28;20038;-62
2022/04/07 04:10:56;;;;;;;2.15;0.70;;;16.60;61.90;;;;;;5020179;28;20056;-62
2022/04/07 04:13:22;;;;;;;3.05;0.80;;;16.60;61.90;;;;;;5021989;28;20064;-62
2022/04/07 04:15:48;;;;;;;3.10;0.70;;;16.60;62.00;;;;;;5012476;28;20025;-62
2022/04/07 04:18:13;;;;;;;1.58;0.50;;;16.60;62.10;;;;;;5018680;28;20034;-62
2022/04/07 04:20:39;;;;;;;1.75;0.77;;;16.60;62.00;;;;;;5022902;28;20036;-62
2022/04/07 04:23:05;;;;;;;2.47;0.80;;;16.60;62.00;;;;;;5016576;28;20556;-62
2022/04/07 04:25:30;;;;;;;3.70;0.73;;;16.60;62.00;;;;;;5023698;28;20022;-62
2022/04/07 04:27:56;;;;;;;1.75;0.70;;;16.60;62.00;;;;;;5018676;28;20586;-62
2022/04/07 04:30:22;;;;;;;4.32;0.90;;;16.60;62.10;;;;;;5018872;28;20029;-62
2022/04/07 04:32:49;;;;;;;2.88;0.85;;;16.60;62.20;;;;;;5016369;28;20026;-62
2022/04/07 04:35:15;;;;;;;2.40;0.80;;;16.60;62.10;;;;;;5020383;28;20092;-62
2022/04/07 04:37:41;;;;;;;2.85;0.80;;;16.60;62.10;;;;;;5017962;28;20033;-62
2022/04/07 04:40:07;;;;;;;3.65;0.80;;;16.60;62.20;;;;;;5018979;28;20041;-62
2022/04/07 04:42:32;;;;;;;1.73;0.60;;;16.60;62.20;;;;;;5016508;28;20029;-62
2022/04/07 04:44:58;;;;;;;2.15;0.57;;;16.60;62.30;;;;;;5014343;28;20030;-62
2022/04/07 04:47:24;;;;;;;2.88;0.80;;;16.60;62.30;;;;;;5017027;28;20125;-62
2022/04/07 04:49:49;;;;;;;3.63;1.00;;;16.60;62.30;;;;;;5023231;28;20068;-62
2022/04/07 04:52:15;;;;;;;4.65;0.85;;;16.60;62.60;;;;;;5019597;28;20025;-62
2022/04/07 04:54:41;;;;;;;2.60;0.88;;;16.60;62.60;;;;;;5014010;28;20029;-62
2022/04/07 04:57:07;;;;;;;4.25;0.95;;;16.60;63.40;;;;;;5020770;28;20029;-62
2022/04/07 04:59:33;;;;;;;3.20;1.10;;;16.60;63.20;;;;;;5017334;28;20033;-62
2022/04/07 05:01:58;;;;;;;4.13;1.20;;;16.60;63.50;;;;;;5016083;28;20026;-62
2022/04/07 05:04:24;;;;;;;3.75;1.00;;;16.60;63.70;;;;;;5015566;28;20516;-62
2022/04/07 05:06:50;;;;;;;2.88;0.85;;;16.60;63.50;;;;;;5010718;28;20068;-62
2022/04/07 05:09:15;;;;;;;4.38;1.00;;;16.60;63.50;;;;;;5026351;28;20430;-62
2022/04/07 05:11:41;;;;;;;5.88;1.35;;;16.60;63.70;;;;;;5019433;28;20493;-62
2022/04/07 05:14:07;;;;;;;8.27;1.60;;;16.70;65.20;;;;;;5020098;28;20041;-62
2022/04/07 05:16:32;;;;;;;6.47;1.52;;;16.70;66.40;;;;;;5021489;28;20033;-63
2022/04/07 05:18:58;;;;;;;5.88;1.40;;;16.70;66.20;;;;;;5025009;28;20025;-63
2022/04/07 05:21:24;;;;;;;7.38;1.67;;;16.70;66.00;;;;;;5021792;28;20405;-62
2022/04/07 05:23:50;;;;;;;3.40;0.98;;;16.70;66.10;;;;;;5017033;28;20049;-62
2022/04/07 05:26:16;;;;;;;5.22;1.10;;;16.80;66.00;;;;;;5016379;28;20074;-62
2022/04/07 05:28:42;;;;;;;5.65;1.10;;;16.80;66.00;;;;;;5016974;28;20063;-64
2022/04/07 05:31:07;;;;;;;8.90;1.80;;;16.80;66.50;;;;;;5013430;28;20431;-64
2022/04/07 05:33:33;;;;;;;8.57;1.73;;;16.80;67.40;;;;;;5017810;28;20080;-64
2022/04/07 05:35:59;;;;;;;8.98;1.60;;;16.80;67.40;;;;;;5025534;28;20025;-64
2022/04/07 05:38:25;;;;;;;8.18;1.85;;;16.80;67.30;;;;;;5027674;28;20033;-63
2022/04/07 05:40:50;;;;;;;9.23;1.73;;;16.90;67.60;;;;;;5021795;28;20473;-64
2022/04/07 05:43:16;;;;;;;10.35;1.80;;;16.80;67.60;;;;;;5018181;28;20518;-64
2022/04/07 05:45:45;;;;;;;9.35;1.90;;;16.90;67.50;;;;;;5011629;28;20034;-64
2022/04/07 05:48:13;;;;;;;11.07;2.00;;;16.80;67.90;;;;;;5013425;28;20048;-64
2022/04/07 05:50:39;;;;;;;9.50;1.92;;;16.80;68.30;;;;;;5023391;28;20026;-64
2022/04/07 05:53:06;;;;;;;6.30;1.52;;;16.80;68.50;;;;;;5015411;28;20441;-64
2022/04/07 05:55:32;;;;;;;8.68;1.80;;;16.80;68.40;;;;;;5011407;28;20026;-64
2022/04/07 05:58:02;;;;;;;9.23;1.50;;;16.80;68.50;;;;;;5016644;28;20179;-64
2022/04/07 06:00:28;;;;;;;11.00;1.88;;;16.80;68.60;;;;;;5010395;28;20044;-64
2022/04/07 06:02:53;;;;;;;8.65;1.40;;;16.80;68.50;;;;;;5015575;28;20034;-64
2022/04/07 06:05:19;;;;;;;11.20;1.90;;;16.80;68.50;;;;;;5017035;28;20053;-64
2022/04/07 06:07:46;;;;;;;11.73;2.30;;;16.80;68.30;;;;;;5015201;28;20073;-64
2022/04/07 06:10:11;;;;;;;14.98;2.10;;;16.80;68.50;;;;;;5014497;28;20508;-64
2022/04/07 06:12:40;;;;;;;8.32;1.83;;;16.80;68.30;;;;;;5009774;28;20029;-64
2022/04/07 06:15:06;;;;;;;11.40;1.80;;;16.80;68.40;;;;;;5014015;28;20030;-64
2022/04/07 06:17:44;;;;;;;11.27;2.00;;;16.80;68.40;;;;;;5019226;28;20033;-64
2022/04/07 06:20:10;;;;;;;10.93;1.98;;;16.80;68.10;;;;;;5018829;28;20439;-64
2022/04/07 06:22:36;;;;;;;8.85;1.90;;;16.80;68.30;;;;;;5020681;28;20619;-64
2022/04/07 06:25:02;;;;;;;6.65;1.63;;;16.80;68.20;;;;;;5017379;28;20025;-64
2022/04/07 06:27:38;;;;;;;7.28;1.75;;;16.80;68.20;;;;;;5018725;28;20401;-64
2022/04/07 06:30:04;;;;;;;11.82;1.80;;;16.80;68.10;;;;;;5022813;28;20560;-64
2022/04/07 06:32:30;;;;;;;8.00;1.73;;;16.80;67.90;;;;;;5018344;28;20029;-64
2022/04/07 06:34:55;;;;;;;12.85;2.03;;;16.70;67.90;;;;;;5020469;28;20033;-64
2022/04/07 06:37:21;;;;;;;7.10;2.00;;;16.70;67.90;;;;;;5018837;28;20616;-63
2022/04/07 06:39:47;;;;;;;6.10;1.75;;;16.70;67.40;;;;;;5014829;28;20124;-63
2022/04/07 06:42:12;;;;;;;6.00;1.30;;;16.70;67.70;;;;;;5019784;28;20038;-64
2022/04/07 06:44:38;;;;;;;7.10;1.50;;;16.70;67.50;;;;;;5029996;28;20049;-64
2022/04/07 06:47:04;;;;;;;7.57;1.65;;;16.70;68.40;;;;;;5026499;28;20401;-64
2022/04/07 06:49:29;;;;;;;5.47;1.50;;;16.70;67.30;;;;;;5026179;28;20029;-64
2022/04/07 06:51:55;;;;;;;6.40;1.48;;;16.70;67.60;;;;;;5017054;28;20053;-63
2022/04/07 06:54:21;;;;;;;5.50;1.45;;;16.70;67.30;;;;;;5016572;28;20052;-64
2022/04/07 06:56:46;;;;;;;6.55;1.50;;;16.70;66.90;;;;;;5021672;28;20546;-64
2022/04/07 06:59:12;;;;;;;10.18;1.95;;;16.70;67.30;;;;;;5026212;28;20041;-64
2022/04/07 07:01:38;;;;;;;8.20;1.73;;;16.70;67.40;;;;;;5024395;28;20140;-64
2022/04/07 07:04:04;;;;;;;6.13;1.55;;;16.70;67.40;;;;;;5017320;28;20025;-64
2022/04/07 07:06:29;;;;;;;6.88;1.58;;;16.70;66.10;;;;;;5021517;28;20030;-64
2022/04/07 07:08:55;;;;;;;8.27;1.30;;;16.70;67.30;;;;;;5021958;28;20080;-64
2022/04/07 07:11:21;;;;;;;9.40;1.50;;;16.70;66.90;;;;;;5018488;28;20038;-64
2022/04/07 07:13:46;;;;;;;8.27;1.42;;;16.70;66.80;;;;;;5021978;28;20041;-64
2022/04/07 07:16:12;;;;;;;7.95;1.30;;;16.70;66.80;;;;;;5016997;28;20021;-64
2022/04/07 07:18:38;;;;;;;8.23;1.55;;;16.70;67.20;;;;;;5017974;28;20034;-64
2022/04/07 07:21:05;;;;;;;6.93;1.35;;;16.70;66.90;;;;;;5032641;28;20033;-64
2022/04/07 07:23:32;;;;;;;8.45;1.60;;;16.70;67.20;;;;;;5031379;28;20028;-64
2022/04/07 07:25:58;;;;;;;5.28;1.25;;;16.70;67.20;;;;;;5022829;28;20028;-64
2022/04/07 07:28:23;;;;;;;6.32;1.55;;;16.60;67.00;;;;;;5022890;28;21286;-64
2022/04/07 07:30:49;;;;;;;7.30;1.65;;;16.70;66.90;;;;;;5020087;28;20105;-64
2022/04/07 07:33:15;;;;;;;6.60;1.33;;;16.70;66.80;;;;;;5024980;28;20033;-64
2022/04/07 07:35:43;;;;;;;5.72;1.23;;;16.70;66.60;;;;;;5025731;28;20022;-64
2022/04/07 07:38:08;;;;;;;7.22;1.58;;;16.70;66.80;;;;;;5020906;28;20038;-64
2022/04/07 07:40:34;;;;;;;7.47;1.42;;;16.70;66.10;;;;;;5021913;28;20646;-64
2022/04/07 07:43:01;;;;;;;6.25;1.30;;;16.70;66.60;;;;;;5016429;28;20056;-63
2022/04/07 07:45:28;;;;;;;5.53;1.15;;;16.70;66.60;;;;;;5016844;28;20038;-64
2022/04/07 07:47:54;;;;;;;8.65;1.52;;;16.70;65.80;;;;;;5037840;28;20040;-64
2022/04/07 07:50:20;;;;;;;7.30;1.50;;;16.70;66.30;;;;;;5014881;28;20033;-63
2022/04/07 07:52:46;;;;;;;6.18;1.30;;;16.60;66.50;;;;;;5023358;28;20029;-64
2022/04/07 07:55:11;;;;;;;7.97;1.60;;;16.70;66.30;;;;;;5019799;28;20056;-64
2022/04/07 07:57:37;;;;;;;3.97;1.20;;;16.70;66.20;;;;;;5016968;28;20026;-64
2022/04/07 08:00:07;;;;;;;7.22;1.23;;;16.60;66.40;;;;;;5017803;28;20025;-64
2022/04/07 08:02:34;;;;;;;6.75;1.23;;;16.70;66.30;;;;;;5024082;28;20456;-64
2022/04/07 08:05:00;;;;;;;7.15;1.65;;;16.60;65.60;;;;;;5023255;28;20145;-64
2022/04/07 08:07:27;;;;;;;7.03;1.25;;;16.70;66.10;;;;;;5021615;28;20140;-64
2022/04/07 08:09:56;;;;;;;4.82;1.40;;;16.70;66.00;;;;;;5013194;28;20034;-64
2022/04/07 08:12:25;;;;;;;5.93;1.33;;;16.70;65.50;;;;;;5018113;28;20160;-64
2022/04/07 08:14:51;;;;;;;7.05;1.27;;;16.70;66.00;;;;;;5021345;28;20457;-64
2022/04/07 08:17:17;;;;;;;3.83;1.20;;;16.60;65.50;;;;;;5019397;28;20052;-64
2022/04/07 08:19:43;;;;;;;8.70;1.17;;;16.70;66.30;;;;;;5018638;28;20454;-64
2022/04/07 08:22:08;;;;;;;6.65;1.25;;;16.70;66.20;;;;;;5013812;28;20056;-64
2022/04/07 08:24:34;;;;;;;6.43;1.35;;;16.60;65.70;;;;;;5019453;28;20442;-64
2022/04/07 08:27:01;;;;;;;5.80;1.20;;;16.60;65.60;;;;;;5026072;28;20504;-64
2022/04/07 08:29:27;;;;;;;7.13;1.15;;;16.70;65.80;;;;;;5023115;28;20423;-64
2022/04/07 08:31:53;;;;;;;4.28;1.10;;;16.70;65.80;;;;;;5022600;28;20512;-64
2022/04/07 08:34:21;;;;;;;7.47;1.33;;;16.60;65.90;;;;;;5016496;28;20040;-64
2022/04/07 08:36:47;;;;;;;4.93;1.13;;;16.60;65.90;;;;;;5014473;28;20360;-64
2022/04/07 08:39:13;;;;;;;6.43;1.02;;;16.70;65.70;;;;;;5027131;28;20063;-64
2022/04/07 08:41:39;;;;;;;5.63;1.02;;;16.60;65.70;;;;;;5021518;28;20053;-64
2022/04/07 08:44:05;;;;;;;8.93;1.88;;;16.60;65.60;;;;;;5019865;28;20057;-64
2022/04/07 08:46:31;;;;;;;6.43;1.30;;;16.70;65.70;;;;;;5015866;28;20065;-64
2022/04/07 08:48:57;;;;;;;5.10;1.10;;;16.60;65.70;;;;;;5016247;28;20175;-64
2022/04/07 08:51:27;;;;;;;3.33;1.10;;;16.70;65.20;;;;;;5010501;28;20109;-64
2022/04/07 08:53:53;;;;;;;3.45;1.00;;;16.70;65.80;;;;;;5033132;28;20109;-64
2022/04/07 08:56:19;;;;;;;4.22;0.88;;;16.70;65.80;;;;;;5025578;28;20105;-64
2022/04/07 08:58:44;;;;;;;6.80;1.10;;;16.70;65.80;;;;;;5025302;28;20446;-64
2022/04/07 09:01:10;;;;;;;4.85;1.35;;;16.70;65.70;;;;;;5021577;28;20032;-64
2022/04/07 09:03:36;;;;;;;5.22;1.10;;;16.70;65.60;;;;;;5027722;28;20116;-64
2022/04/07 09:06:03;;;;;;;5.55;1.33;;;16.70;65.70;;;;;;5019842;28;20113;-64
2022/04/07 09:08:36;;;;;;;4.82;1.08;;;16.70;65.70;;;;;;5029599;28;20033;-64
2022/04/07 09:11:08;;;;;;;6.40;1.30;;;16.70;65.70;;;;;;5022960;28;20115;-64
2022/04/07 09:13:42;;;;;;;6.55;1.35;;;16.70;65.60;;;;;;5021398;28;20396;-64
2022/04/07 09:16:11;;;;;;;4.47;1.20;;;16.70;65.50;;;;;;5013881;28;20025;-64
2022/04/07 09:18:37;;;;;;;6.40;1.20;;;16.70;65.50;;;;;;5015095;28;20076;-64
2022/04/07 09:21:04;;;;;;;5.13;1.38;;;16.80;65.60;;;;;;5016322;28;20471;-64
2022/04/07 09:23:39;;;;;;;5.15;1.35;;;16.80;66.50;;;;;;5024258;28;20037;-64
2022/04/07 09:26:05;;;;;;;4.82;1.15;;;16.80;65.60;;;;;;5013029;28;20026;-64
2022/04/07 09:28:31;;;;;;;5.60;1.20;;;16.80;65.50;;;;;;5015759;28;20099;-64
2022/04/07 09:30:58;;;;;;;5.30;1.27;;;16.80;65.50;;;;;;5011828;28;20030;-64
2022/04/07 09:33:24;;;;;;;5.78;1.20;;;16.80;65.40;;;;;;5014742;28;20049;-64
2022/04/07 09:36:00;;;;;;;3.90;1.20;;;16.80;65.40;;;;;;5025585;28;20029;-64
2022/04/07 09:38:27;;;;;;;5.05;1.42;;;16.80;65.40;;;;;;5023553;28;20044;-64
2022/04/07 09:40:53;;;;;;;4.97;1.13;;;16.80;65.30;;;;;;5021585;28;20100;-64
2022/04/07 09:43:20;;;;;;;6.18;1.40;;;16.80;65.30;;;;;;5017147;28;20569;-64
2022/04/07 09:45:46;;;;;;;5.70;0.98;;;16.80;65.30;;;;;;5015245;28;20444;-64
2022/04/07 09:48:19;;;;;;;5.05;1.20;;;16.80;65.30;;;;;;5018819;28;20061;-64
2022/04/07 09:51:01;;;;;;;2.72;0.95;;;16.80;65.20;;;;;;5019053;28;20037;-64
2022/04/07 09:53:38;;;;;;;4.80;1.23;;;16.80;65.20;;;;;;5010651;28;20544;-64
2022/04/07 09:56:05;;;;;;;5.00;1.08;;;16.90;65.20;;;;;;5033865;28;20017;-64
2022/04/07 09:58:32;;;;;;;4.72;1.15;;;16.80;65.10;;;;;;5020899;28;20030;-64
2022/04/07 10:01:01;;;;;;;4.00;1.05;;;16.80;65.10;;;;;;5012621;28;20045;-64
2022/04/07 10:03:27;;;;;;;5.25;1.40;;;16.80;65.10;;;;;;5024830;28;20577;-64
2022/04/07 10:05:53;;;;;;;4.03;1.02;;;16.80;65.10;;;;;;5026136;28;20037;-64
2022/04/07 10:08:18;;;;;;;4.50;1.10;;;16.80;65.10;;;;;;5020553;28;20441;-64
2022/04/07 10:10:44;;;;;;;6.22;1.30;;;16.80;65.00;;;;;;5023953;28;20024;-64
2022/04/07 10:13:10;;;;;;;4.95;1.10;;;16.80;65.00;;;;;;5019592;28;20033;-64
2022/04/07 10:15:36;;;;;;;4.30;1.23;;;16.90;65.10;;;;;;5016934;28;20033;-64
2022/04/07 10:18:04;;;;;;;4.07;1.10;;;16.90;65.00;;;;;;5023858;28;20486;-64
2022/04/07 10:20:35;;;;;;;5.05;0.93;;;16.80;64.90;;;;;;5018704;28;20426;-64
2022/04/07 10:23:25;;;;;;;3.38;0.80;;;16.90;65.00;;;;;;5018149;28;20025;-64
2022/04/07 10:25:51;;;;;;;6.50;1.70;;;16.90;64.80;;;;;;5017032;28;20057;-64
2022/04/07 10:28:17;;;;;;;5.57;1.10;;;16.90;64.70;;;;;;5018880;28;20060;-64
2022/04/07 10:30:49;;;;;;;4.50;0.88;;;16.90;64.70;;;;;;5023478;28;20045;-64
2022/04/07 10:33:41;;;;;;;2.83;0.82;;;17.00;64.70;;;;;;5022097;28;20193;-64
2022/04/07 10:36:13;;;;;;;4.35;1.00;;;16.90;64.50;;;;;;5022873;28;20836;-64
2022/04/07 10:38:40;;;;;;;4.85;1.40;;;17.00;64.50;;;;;;5021647;28;20426;-64
2022/04/07 10:41:06;;;;;;;4.43;1.25;;;17.00;64.50;;;;;;5025540;28;20081;-64
2022/04/07 10:43:37;;;;;;;5.18;1.15;;;17.00;64.40;;;;;;5016906;28;20053;-64
2022/04/07 10:46:06;;;;;;;6.38;1.48;;;17.00;64.40;;;;;;5013999;28;20073;-64
2022/04/07 10:48:45;;;;;;;4.68;1.10;;;17.10;64.30;;;;;;5009664;28;20536;-64
2022/04/07 10:51:11;;;;;;;5.25;1.08;;;17.10;65.20;;;;;;5017150;28;20025;-64
2022/04/07 10:54:00;;;;;;;6.30;1.30;;;17.10;64.20;;;;;;5018814;28;20034;-64
2022/04/07 10:56:34;;;;;;;4.13;0.85;;;17.10;64.10;;;;;;5013415;28;22091;-64
2022/04/07 10:59:19;;;;;;;3.35;0.95;;;17.10;64.10;;;;;;5022543;28;20032;-64
2022/04/07 11:01:56;;;;;;;3.97;1.10;;;17.20;63.90;;;;;;5021148;28;20385;-64
2022/04/07 11:04:22;;;;;;;7.05;1.27;;;17.20;63.90;;;;;;5012849;28;20022;-64
2022/04/07 11:07:15;;;;;;;2.92;1.00;;;17.20;63.90;;;;;;5017843;28;20045;-64
2022/04/07 11:09:44;;;;;;;4.32;1.05;;;17.30;63.90;;;;;;5014038;28;20040;-64
2022/04/07 11:12:25;;;;;;;4.90;1.10;;;17.20;63.70;;;;;;5015414;28;20204;-64
2022/04/07 11:15:03;;;;;;;5.53;1.10;;;17.30;63.70;;;;;;5023983;28;20105;-64
2022/04/07 11:17:36;;;;;;;3.67;0.85;;;17.30;63.60;;;;;;5017332;28;20033;-65
2022/04/07 11:20:05;;;;;;;5.38;1.20;;;17.30;63.50;;;;;;5022690;28;20042;-64
2022/04/07 11:23:04;;;;;;;4.07;1.02;;;17.30;63.50;;;;;;5014966;28;20117;-64
2022/04/07 11:25:41;;;;;;;5.55;1.17;;;17.30;63.40;;;;;;5012164;28;20026;-64
2022/04/07 11:28:10;;;;;;;5.07;1.10;;;17.40;63.40;;;;;;5016336;28;20041;-64
2022/04/07 11:30:49;;;;;;;4.75;1.23;;;17.40;63.40;;;;;;5017329;28;20116;-64
2022/04/07 11:33:26;;;;;;;4.93;0.98;;;17.40;63.20;;;;;;5017781;28;20052;-64
2022/04/07 11:36:00;;;;;;;4.13;0.90;;;17.50;63.20;;;;;;5019479;28;20105;-64
2022/04/07 11:38:52;;;;;;;3.97;0.95;;;17.50;63.20;;;;;;5021597;28;20045;-64
2022/04/07 11:41:18;;;;;;;2.78;0.90;;;17.50;63.10;;;;;;5024317;28;20573;-64
2022/04/07 11:43:51;;;;;;;5.18;1.10;;;17.50;63.10;;;;;;5021818;28;20046;-64
2022/04/07 11:46:27;;;;;;;4.00;1.38;;;17.50;63.00;;;;;;5019054;28;20215;-64
2022/04/07 11:48:54;;;;;;;5.63;1.40;;;17.50;63.10;;;;;;5018473;28;20041;-64
2022/04/07 11:51:20;;;;;;;8.38;1.33;;;17.50;63.10;;;;;;5019030;28;20036;-64
2022/04/07 11:53:52;;;;;;;6.55;1.20;;;17.40;63.00;;;;;;5026838;28;20044;-64
2022/04/07 11:56:27;;;;;;;4.30;1.10;;;17.50;63.10;;;;;;5018819;28;20093;-64
2022/04/07 11:58:58;;;;;;;2.72;0.70;;;17.40;63.20;;;;;;5024270;28;20060;-64
2022/04/07 12:01:23;;;;;;;4.05;1.00;;;17.50;63.10;;;;;;5017781;28;20033;-64
2022/04/07 12:03:56;;;;;;;4.68;1.05;;;17.50;63.10;;;;;;5019277;28;20032;-64
2022/04/07 12:06:29;;;;;;;5.03;1.20;;;17.50;63.00;;;;;;5018381;28;20033;-64
2022/04/07 12:08:55;;;;;;;4.15;1.25;;;17.50;62.90;;;;;;5025982;28;20022;-64
2022/04/07 12:11:21;;;;;;;6.07;1.50;;;17.60;62.90;;;;;;5024222;28;20063;-64
2022/04/07 12:13:49;;;;;;;4.50;1.20;;;17.60;62.90;;;;;;5024138;28;20025;-64
2022/04/07 12:16:14;;;;;;;2.92;1.05;;;17.60;62.90;;;;;;5022136;28;20044;-64
2022/04/07 12:18:40;;;;;;;4.82;1.27;;;17.70;62.90;;;;;;5017494;28;20483;-64
2022/04/07 12:21:06;;;;;;;5.53;1.00;;;17.70;62.70;;;;;;5026293;28;20513;-64
2022/04/07 12:23:32;;;;;;;6.40;1.17;;;17.70;62.60;;;;;;5025589;28;20055;-64
2022/04/07 12:25:59;;;;;;;3.25;1.08;;;17.70;62.60;;;;;;5022383;28;20041;-64
2022/04/07 12:28:32;;;;;;;6.03;1.33;;;17.80;62.50;;;;;;5026095;28;20079;-64
2022/04/07 12:30:58;;;;;;;5.32;1.17;;;17.80;62.50;;;;;;5021738;28;20026;-64
2022/04/07 12:34:08;;;;;;;5.20;1.20;;;17.80;62.50;;;;;;5014132;28;20509;-64
2022/04/07 12:36:36;;;;;;;3.90;1.00;;;17.90;62.40;;;;;;5009386;28;20025;-64
2022/04/07 12:39:03;;;;;;;4.43;1.20;;;17.90;62.30;;;;;;5027215;28;20121;-64
2022/04/07 12:41:36;;;;;;;4.30;1.15;;;17.90;62.30;;;;;;5028685;28;20037;-64
2022/04/07 12:44:02;;;;;;;5.10;1.25;;;17.90;62.20;;;;;;5028512;28;20052;-64
2022/04/07 12:46:44;;;;;;;4.53;1.15;;;18.00;62.10;;;;;;5026762;28;20045;-64
2022/04/07 12:49:10;;;;;;;6.18;1.38;;;18.10;62.00;;;;;;5027685;28;20395;-64